createdAt,value
2023-01-19T00:01:30.141Z,98209.28
2023-01-19T00:03:58.538Z,98210.31
2023-01-19T00:06:25.933Z,98213.75
2023-01-19T00:08:53.487Z,98211.53
2023-01-19T00:11:20.820Z,98221.06
2023-01-19T00:13:53.952Z,98229.81
2023-01-19T00:16:23.613Z,98232.34
2023-01-19T00:18:52.150Z,98222.53
2023-01-19T00:21:20.051Z,98207.09
2023-01-19T00:23:47.788Z,98208.00
2023-01-19T00:26:22.548Z,98212.41
2023-01-19T00:28:50.654Z,98217.81
2023-01-19T00:31:20.901Z,98222.03
2023-01-19T00:33:49.526Z,98216.22
2023-01-19T00:36:17.037Z,98219.94
2023-01-19T00:38:45.381Z,98224.38
2023-01-19T00:41:19.497Z,98225.84
2023-01-19T00:43:47.473Z,98227.59
2023-01-19T00:46:14.455Z,98232.47
2023-01-19T00:48:42.075Z,98241.91
2023-01-19T00:51:09.266Z,98248.16
2023-01-19T00:53:36.238Z,98249.00
2023-01-19T00:56:03.218Z,98253.47
2023-01-19T00:58:30.138Z,98265.38
2023-01-19T01:01:03.915Z,98260.50
2023-01-19T01:03:31.246Z,98262.81
2023-01-19T01:05:58.518Z,98255.28
2023-01-19T01:08:25.760Z,98256.47
2023-01-19T01:10:54.748Z,98261.00
2023-01-19T01:13:24.777Z,98257.56
2023-01-19T01:15:56.412Z,98250.50
2023-01-19T01:18:24.274Z,98247.84
2023-01-19T01:20:51.197Z,98234.84
2023-01-19T01:23:23.135Z,98233.13
2023-01-19T01:25:50.199Z,98239.91
2023-01-19T01:28:17.119Z,98231.00
2023-01-19T01:30:46.176Z,98234.66
2023-01-19T01:33:13.630Z,98246.28
2023-01-19T01:35:42.114Z,98246.94
2023-01-19T01:38:10.579Z,98244.47
2023-01-19T01:40:42.270Z,98249.66
2023-01-19T01:43:13.153Z,98225.97
2023-01-19T01:45:40.968Z,98227.25
2023-01-19T01:48:11.156Z,98238.31
2023-01-19T01:51:00.777Z,98230.22
2023-01-19T01:53:29.299Z,98236.28
2023-01-19T01:55:58.329Z,98238.31
2023-01-19T01:58:27.854Z,98238.22
2023-01-19T02:01:14.102Z,98244.28
2023-01-19T02:03:41.695Z,98247.66
2023-01-19T02:06:10.520Z,98247.41
2023-01-19T02:09:11.696Z,98250.28
2023-01-19T02:11:58.434Z,98240.44
2023-01-19T02:14:25.665Z,98240.00
2023-01-19T02:16:54.822Z,98249.56
2023-01-19T02:19:30.042Z,98244.22
2023-01-19T02:22:04.397Z,98245.97
2023-01-19T02:24:31.895Z,98239.31
2023-01-19T02:26:59.640Z,98243.78
2023-01-19T02:29:26.934Z,98251.69
2023-01-19T02:31:56.666Z,98243.66
2023-01-19T02:34:30.339Z,98239.84
2023-01-19T02:36:58.777Z,98242.63
2023-01-19T02:39:38.998Z,98239.16
2023-01-19T02:42:12.354Z,98243.78
2023-01-19T02:44:40.472Z,98240.00
2023-01-19T02:47:09.902Z,98235.91
2023-01-19T02:49:37.891Z,98233.09
2023-01-19T02:52:05.253Z,98239.97
2023-01-19T02:54:50.878Z,98247.94
2023-01-19T02:57:22.040Z,98263.97
2023-01-19T03:00:10.445Z,98271.03
2023-01-19T03:02:51.350Z,98274.38
2023-01-19T03:05:26.319Z,98274.50
2023-01-19T03:08:18.342Z,98281.41
2023-01-19T03:11:01.058Z,98291.50
2023-01-19T03:13:47.491Z,98291.22
2023-01-19T03:16:34.434Z,98289.63
2023-01-19T03:19:07.255Z,98304.31
2023-01-19T03:21:37.100Z,98306.09
2023-01-19T03:24:06.736Z,98313.06
2023-01-19T03:26:37.517Z,98320.94
2023-01-19T03:29:07.275Z,98316.72
2023-01-19T03:31:38.479Z,98307.34
2023-01-19T03:34:08.586Z,98303.97
2023-01-19T03:36:41.869Z,98302.13
2023-01-19T03:39:10.146Z,98309.97
2023-01-19T03:41:41.320Z,98313.41
2023-01-19T03:44:12.426Z,98325.38
2023-01-19T03:46:40.775Z,98322.53
2023-01-19T03:49:08.787Z,98330.88
2023-01-19T03:51:36.873Z,98328.03
2023-01-19T03:54:05.920Z,98341.91
2023-01-19T03:56:33.698Z,98348.16
2023-01-19T03:59:00.962Z,98353.06
2023-01-19T04:01:29.349Z,98366.16
2023-01-19T04:03:56.696Z,98374.03
2023-01-19T04:06:29.925Z,98375.22
2023-01-19T04:08:56.801Z,98381.41
2023-01-19T04:11:38.139Z,98384.00
2023-01-19T04:14:06.117Z,98400.34
2023-01-19T04:16:34.637Z,98389.13
2023-01-19T04:19:02.006Z,98398.13
2023-01-19T04:21:28.998Z,98399.63
2023-01-19T04:23:55.922Z,98413.47
2023-01-19T04:26:24.101Z,98406.41
2023-01-19T04:28:51.332Z,98418.56
2023-01-19T04:31:19.787Z,98417.81
2023-01-19T04:33:46.681Z,98410.34
2023-01-19T04:36:13.723Z,98415.69
2023-01-19T04:38:42.405Z,98422.63
2023-01-19T04:41:10.283Z,98426.09
2023-01-19T04:43:38.160Z,98415.69
2023-01-19T04:46:06.290Z,98414.44
2023-01-19T04:48:33.623Z,98415.94
2023-01-19T04:51:01.594Z,98408.97
2023-01-19T04:53:35.934Z,98414.88
2023-01-19T04:56:04.213Z,98421.91
2023-01-19T04:58:37.375Z,98430.66
2023-01-19T05:01:07.632Z,98439.25
2023-01-19T05:03:36.206Z,98445.03
2023-01-19T05:06:05.396Z,98435.25
2023-01-19T05:08:32.397Z,98445.41
2023-01-19T05:11:01.908Z,98443.78
2023-01-19T05:13:29.283Z,98455.25
2023-01-19T05:15:56.304Z,98451.63
2023-01-19T05:18:23.977Z,98455.69
2023-01-19T05:20:51.152Z,98471.47
2023-01-19T05:23:20.523Z,98471.63
2023-01-19T05:25:47.804Z,98472.69
2023-01-19T05:28:15.622Z,98467.63
2023-01-19T05:30:42.664Z,98456.44
2023-01-19T05:33:10.681Z,98459.91
2023-01-19T05:35:37.631Z,98452.88
2023-01-19T05:38:07.016Z,98447.59
2023-01-19T05:40:40.195Z,98447.50
2023-01-19T05:43:08.219Z,98440.22
2023-01-19T05:45:39.128Z,98444.56
2023-01-19T05:48:09.363Z,98453.22
2023-01-19T05:50:36.912Z,98459.00
2023-01-19T05:53:04.487Z,98460.19
2023-01-19T05:55:32.834Z,98460.72
2023-01-19T05:57:59.891Z,98443.41
2023-01-19T06:00:27.903Z,98450.19
2023-01-19T06:02:55.278Z,98448.34
2023-01-19T06:05:22.536Z,98445.69
2023-01-19T06:07:51.607Z,98439.53
2023-01-19T06:10:19.004Z,98455.16
2023-01-19T06:12:46.371Z,98455.16
2023-01-19T06:15:15.747Z,98457.69
2023-01-19T06:17:43.382Z,98460.34
2023-01-19T06:20:11.113Z,98467.38
2023-01-19T06:22:38.339Z,98466.44
2023-01-19T06:25:05.461Z,98465.44
2023-01-19T06:27:32.744Z,98471.50
2023-01-19T06:29:59.651Z,98476.72
2023-01-19T06:32:26.663Z,98476.53
2023-01-19T06:34:54.667Z,98480.91
2023-01-19T06:37:22.640Z,98481.81
2023-01-19T06:39:49.539Z,98483.47
2023-01-19T06:42:28.807Z,98487.94
2023-01-19T06:44:55.759Z,98497.41
2023-01-19T06:47:22.598Z,98513.88
2023-01-19T06:49:49.909Z,98507.88
2023-01-19T06:52:18.616Z,98499.22
2023-01-19T06:54:46.463Z,98506.25
2023-01-19T06:57:14.469Z,98509.69
2023-01-19T06:59:41.948Z,98517.66
2023-01-19T07:02:26.346Z,98514.03
2023-01-19T07:04:55.903Z,98518.44
2023-01-19T07:07:24.408Z,98507.91
2023-01-19T07:09:54.369Z,98507.72
2023-01-19T07:12:22.571Z,98518.88
2023-01-19T07:14:49.882Z,98523.19
2023-01-19T07:17:17.206Z,98530.00
2023-01-19T07:19:44.909Z,98526.44
2023-01-19T07:22:13.167Z,98524.72
2023-01-19T07:24:41.408Z,98509.00
2023-01-19T07:27:08.831Z,98511.50
2023-01-19T07:29:35.722Z,98520.19
2023-01-19T07:32:03.117Z,98522.75
2023-01-19T07:34:30.444Z,98526.38
2023-01-19T07:36:59.624Z,98533.16
2023-01-19T07:39:27.894Z,98541.81
2023-01-19T07:41:54.881Z,98539.19
2023-01-19T07:44:21.800Z,98536.47
2023-01-19T07:46:49.608Z,98537.13
2023-01-19T07:49:17.787Z,98533.66
2023-01-19T07:51:44.722Z,98543.03
2023-01-19T07:54:11.874Z,98548.38
2023-01-19T07:56:39.104Z,98563.84
2023-01-19T07:59:07.664Z,98561.16
2023-01-19T08:01:34.604Z,98569.00
2023-01-19T08:04:01.540Z,98573.31
2023-01-19T08:06:33.176Z,98583.97
2023-01-19T08:09:02.767Z,98576.38
2023-01-19T08:11:30.043Z,98579.66
2023-01-19T08:13:57.470Z,98578.81
2023-01-19T08:16:24.627Z,98571.06
2023-01-19T08:18:51.571Z,98577.16
2023-01-19T08:21:18.773Z,98581.66
2023-01-19T08:23:50.804Z,98566.19
2023-01-19T08:26:24.138Z,98569.50
2023-01-19T08:28:51.043Z,98578.81
2023-01-19T08:31:21.704Z,98580.47
2023-01-19T08:33:50.392Z,98579.53
2023-01-19T08:36:18.745Z,98581.34
2023-01-19T08:38:46.277Z,98576.91
2023-01-19T08:41:13.776Z,98580.34
2023-01-19T08:43:42.866Z,98581.13
2023-01-19T08:46:09.985Z,98579.28
2023-01-19T08:48:39.718Z,98574.97
2023-01-19T08:51:06.776Z,98574.81
2023-01-19T08:53:34.410Z,98574.66
2023-01-19T08:56:02.846Z,98565.09
2023-01-19T08:58:30.001Z,98572.06
2023-01-19T09:01:00.176Z,98579.06
2023-01-19T09:03:27.604Z,98590.28
2023-01-19T09:05:54.501Z,98602.00
2023-01-19T09:08:21.503Z,98612.03
2023-01-19T09:10:49.768Z,98613.88
2023-01-19T09:13:17.551Z,98632.91
2023-01-19T09:15:45.030Z,98632.84
2023-01-19T09:18:16.156Z,98638.06
2023-01-19T09:20:43.976Z,98633.91
2023-01-19T09:23:12.739Z,98637.34
2023-01-19T09:25:40.171Z,98639.72
2023-01-19T09:28:09.351Z,98640.41
2023-01-19T09:30:38.078Z,98643.84
2023-01-19T09:33:08.636Z,98633.34
2023-01-19T09:35:35.742Z,98626.34
2023-01-19T09:38:02.986Z,98629.94
2023-01-19T09:40:30.201Z,98622.94
2023-01-19T09:43:12.295Z,98620.47
2023-01-19T09:45:53.742Z,98619.53
2023-01-19T09:48:39.098Z,98607.50
2023-01-19T09:51:11.420Z,98601.34
2023-01-19T09:53:51.033Z,98596.06
2023-01-19T09:56:20.496Z,98594.16
2023-01-19T09:58:48.959Z,98589.94
2023-01-19T10:01:24.677Z,98581.94
2023-01-19T10:03:54.751Z,98573.16
2023-01-19T10:06:22.135Z,98572.19
2023-01-19T10:08:57.479Z,98575.13
2023-01-19T10:11:34.510Z,98582.97
2023-01-19T10:14:17.400Z,98582.16
2023-01-19T10:16:57.495Z,98593.53
2023-01-19T10:19:28.041Z,98591.13
2023-01-19T10:22:00.140Z,98584.88
2023-01-19T10:24:35.193Z,98594.28
2023-01-19T10:27:02.780Z,98589.88
2023-01-19T10:29:37.965Z,98595.44
2023-01-19T10:32:08.002Z,98586.53
2023-01-19T10:34:35.495Z,98583.84
2023-01-19T10:37:18.286Z,98588.13
2023-01-19T10:39:52.745Z,98584.38
2023-01-19T10:42:20.100Z,98586.97
2023-01-19T10:44:50.042Z,98584.09
2023-01-19T10:47:19.565Z,98588.53
2023-01-19T10:49:48.314Z,98583.06
2023-01-19T10:52:21.257Z,98582.38
2023-01-19T10:54:51.097Z,98585.91
2023-01-19T10:57:27.381Z,98585.91
2023-01-19T10:59:56.670Z,98585.91
2023-01-19T11:02:27.991Z,98581.56
2023-01-19T11:04:56.768Z,98579.91
2023-01-19T11:07:35.981Z,98578.28
2023-01-19T11:10:21.218Z,98578.97
2023-01-19T11:12:55.769Z,98570.28
2023-01-19T11:15:24.518Z,98570.25
2023-01-19T11:17:58.063Z,98566.81
2023-01-19T11:20:33.452Z,98572.91
2023-01-19T11:23:16.352Z,98561.84
2023-01-19T11:25:46.380Z,98569.09
2023-01-19T11:28:20.987Z,98570.47
2023-01-19T11:31:14.260Z,98577.41
2023-01-19T11:33:50.899Z,98570.59
2023-01-19T11:36:21.419Z,98574.72
2023-01-19T11:38:50.923Z,98574.03
2023-01-19T11:41:24.796Z,98572.97
2023-01-19T11:44:22.118Z,98577.47
2023-01-19T11:46:53.719Z,98574.75
2023-01-19T11:49:20.860Z,98577.28
2023-01-19T11:51:59.787Z,98573.06
2023-01-19T11:54:30.604Z,98568.66
2023-01-19T11:56:59.408Z,98563.50
2023-01-19T11:59:26.799Z,98579.06
2023-01-19T12:01:57.818Z,98574.03
2023-01-19T12:04:34.616Z,98568.75
2023-01-19T12:07:07.800Z,98573.97
2023-01-19T12:09:46.624Z,98582.13
2023-01-19T12:12:16.361Z,98573.06
2023-01-19T12:14:46.681Z,98575.66
2023-01-19T12:17:26.221Z,98574.97
2023-01-19T12:20:04.155Z,98570.53
2023-01-19T12:22:37.654Z,98574.72
2023-01-19T12:25:25.399Z,98574.81
2023-01-19T12:27:53.460Z,98574.72
2023-01-19T12:30:25.714Z,98568.50
2023-01-19T12:33:12.581Z,98576.09
2023-01-19T12:35:57.194Z,98577.06
2023-01-19T12:38:24.115Z,98578.97
2023-01-19T12:40:51.356Z,98573.50
2023-01-19T12:43:19.827Z,98579.50
2023-01-19T12:45:48.352Z,98580.31
2023-01-19T12:48:26.824Z,98568.97
2023-01-19T12:50:54.094Z,98577.16
2023-01-19T12:53:22.818Z,98578.22
2023-01-19T12:56:01.381Z,98573.50
2023-01-19T12:58:28.877Z,98566.38
2023-01-19T13:01:16.240Z,98578.53
2023-01-19T13:03:45.688Z,98570.91
2023-01-19T13:06:13.022Z,98575.28
2023-01-19T13:08:59.307Z,98566.72
2023-01-19T13:11:34.712Z,98573.25
2023-01-19T13:14:01.995Z,98571.78
2023-01-19T13:16:29.078Z,98565.91
2023-01-19T13:19:00.884Z,98570.34
2023-01-19T13:21:33.250Z,98578.09
2023-01-19T13:24:01.783Z,98579.81
2023-01-19T13:26:49.235Z,98588.53
2023-01-19T13:29:19.880Z,98599.16
2023-01-19T13:31:56.488Z,98593.16
2023-01-19T13:34:25.034Z,98603.00
2023-01-19T13:36:53.642Z,98606.66
2023-01-19T13:39:26.375Z,98610.28
2023-01-19T13:41:55.956Z,98622.59
2023-01-19T13:44:25.988Z,98629.72
2023-01-19T13:46:55.413Z,98630.53
2023-01-19T13:49:44.072Z,98628.94
2023-01-19T13:52:27.788Z,98627.25
2023-01-19T13:54:56.085Z,98626.44
2023-01-19T13:57:28.115Z,98623.56
2023-01-19T14:00:07.138Z,98618.66
2023-01-19T14:02:34.681Z,98616.41
2023-01-19T14:05:20.176Z,98624.19
2023-01-19T14:07:59.548Z,98622.09
2023-01-19T14:10:27.006Z,98623.75
2023-01-19T14:13:04.348Z,98624.78
2023-01-19T14:15:34.991Z,98624.78
2023-01-19T14:18:22.623Z,98634.16
2023-01-19T14:21:06.362Z,98625.41
2023-01-19T14:23:48.399Z,98632.94
2023-01-19T14:26:35.353Z,98635.03
2023-01-19T14:29:07.923Z,98638.50
2023-01-19T14:31:42.752Z,98634.41
2023-01-19T14:34:29.193Z,98644.00
2023-01-19T14:36:56.251Z,98639.72
2023-01-19T14:39:24.928Z,98634.31
2023-01-19T14:41:53.834Z,98642.38
2023-01-19T14:44:30.034Z,98640.53
2023-01-19T14:46:59.766Z,98646.69
2023-01-19T14:49:30.739Z,98645.75
2023-01-19T14:51:57.856Z,98643.72
2023-01-19T14:54:36.371Z,98648.91
2023-01-19T14:57:14.171Z,98642.84
2023-01-19T14:59:41.738Z,98637.66
2023-01-19T15:02:14.781Z,98646.31
2023-01-19T15:04:42.197Z,98649.94
2023-01-19T15:07:16.194Z,98655.91
2023-01-19T15:09:44.790Z,98658.53
2023-01-19T15:12:14.253Z,98646.47
2023-01-19T15:14:44.597Z,98646.25
2023-01-19T15:17:28.267Z,98634.97
2023-01-19T15:19:56.307Z,98652.50
2023-01-19T15:22:27.042Z,98652.25
2023-01-19T15:24:57.820Z,98658.25
2023-01-19T15:27:25.280Z,98658.34
2023-01-19T15:29:52.227Z,98658.25
2023-01-19T15:32:19.526Z,98659.31
2023-01-19T15:34:47.061Z,98661.97
2023-01-19T15:37:14.498Z,98654.66
2023-01-19T15:39:41.543Z,98658.84
2023-01-19T15:42:14.947Z,98658.13
2023-01-19T15:44:42.983Z,98656.59
2023-01-19T15:47:11.104Z,98661.72
2023-01-19T15:49:38.410Z,98659.19
2023-01-19T15:52:05.873Z,98662.66
2023-01-19T15:54:33.257Z,98658.22
2023-01-19T15:57:00.259Z,98670.53
2023-01-19T15:59:29.727Z,98663.66
2023-01-19T16:01:56.965Z,98663.78
2023-01-19T16:04:24.144Z,98661.91
2023-01-19T16:06:52.180Z,98664.72
2023-01-19T16:09:20.390Z,98653.94
2023-01-19T16:11:47.525Z,98660.09
2023-01-19T16:14:16.646Z,98669.69
2023-01-19T16:16:46.522Z,98663.50
2023-01-19T16:19:16.304Z,98677.41
2023-01-19T16:21:44.340Z,98677.66
2023-01-19T16:24:11.439Z,98685.50
2023-01-19T16:26:38.453Z,98686.44
2023-01-19T16:29:10.167Z,98687.19
2023-01-19T16:31:38.671Z,98682.13
2023-01-19T16:34:07.322Z,98690.19
2023-01-19T16:36:37.128Z,98697.16
2023-01-19T16:39:08.349Z,98699.69
2023-01-19T16:41:37.397Z,98705.75
2023-01-19T16:44:11.811Z,98698.06
2023-01-19T16:46:44.060Z,98691.81
2023-01-19T16:49:16.869Z,98695.53
2023-01-19T16:51:44.877Z,98700.13
2023-01-19T16:54:21.206Z,98699.34
2023-01-19T16:56:48.963Z,98701.19
2023-01-19T16:59:17.675Z,98692.56
2023-01-19T17:01:46.998Z,98692.50
2023-01-19T17:04:16.699Z,98696.97
2023-01-19T17:06:46.778Z,98696.19
2023-01-19T17:09:14.827Z,98695.28
2023-01-19T17:11:49.358Z,98699.72
2023-01-19T17:14:17.907Z,98693.00
2023-01-19T17:16:46.929Z,98696.53
2023-01-19T17:19:15.159Z,98704.47
2023-01-19T17:21:49.364Z,98694.06
2023-01-19T17:24:18.353Z,98695.19
2023-01-19T17:26:48.983Z,98708.91
2023-01-19T17:29:17.407Z,98701.88
2023-01-19T17:31:46.213Z,98701.72
2023-01-19T17:34:15.098Z,98705.38
2023-01-19T17:36:42.567Z,98709.78
2023-01-19T17:39:15.129Z,98701.34
2023-01-19T17:41:42.847Z,98710.72
2023-01-19T17:44:11.185Z,98710.97
2023-01-19T17:46:39.666Z,98710.09
2023-01-19T17:49:14.101Z,98713.97
2023-01-19T17:51:42.480Z,98712.09
2023-01-19T17:54:12.008Z,98710.66
2023-01-19T17:56:43.333Z,98711.66
2023-01-19T17:59:11.192Z,98719.22
2023-01-19T18:01:40.920Z,98720.25
2023-01-19T18:04:09.253Z,98726.97
2023-01-19T18:06:42.717Z,98730.59
2023-01-19T18:09:12.401Z,98733.34
2023-01-19T18:11:40.589Z,98744.00
2023-01-19T18:14:09.985Z,98744.84
2023-01-19T18:16:37.387Z,98758.56
2023-01-19T18:19:05.014Z,98751.06
2023-01-19T18:21:34.013Z,98752.00
2023-01-19T18:24:09.033Z,98757.34
2023-01-19T18:26:38.357Z,98753.13
2023-01-19T18:29:06.419Z,98754.00
2023-01-19T18:31:43.670Z,98765.09
2023-01-19T18:34:13.161Z,98763.97
2023-01-19T18:36:41.064Z,98768.94
2023-01-19T18:39:10.340Z,98777.09
2023-01-19T18:41:44.499Z,98780.84
2023-01-19T18:44:13.417Z,98777.47
2023-01-19T18:46:43.207Z,98781.72
2023-01-19T18:49:11.817Z,98797.81
2023-01-19T18:51:41.311Z,98797.84
2023-01-19T18:54:11.758Z,98801.34
2023-01-19T18:56:45.882Z,98801.50
2023-01-19T18:59:15.278Z,98807.75
2023-01-19T19:01:43.996Z,98812.13
2023-01-19T19:04:12.360Z,98816.53
2023-01-19T19:06:40.573Z,98815.69
2023-01-19T19:09:12.723Z,98809.66
2023-01-19T19:11:40.498Z,98810.59
2023-01-19T19:14:07.733Z,98806.28
2023-01-19T19:16:42.054Z,98808.84
2023-01-19T19:19:15.076Z,98808.03
2023-01-19T19:21:43.429Z,98810.69
2023-01-19T19:24:12.564Z,98815.84
2023-01-19T19:26:42.821Z,98819.28
2023-01-19T19:29:10.894Z,98818.44
2023-01-19T19:31:38.858Z,98810.72
2023-01-19T19:34:06.775Z,98810.72
2023-01-19T19:36:36.805Z,98816.59
2023-01-19T19:39:07.698Z,98825.25
2023-01-19T19:41:38.109Z,98827.00
2023-01-19T19:44:06.411Z,98819.25
2023-01-19T19:46:35.522Z,98832.19
2023-01-19T19:49:03.824Z,98832.16
2023-01-19T19:51:32.761Z,98834.81
2023-01-19T19:54:01.232Z,98830.53
2023-01-19T19:56:33.148Z,98833.97
2023-01-19T19:59:08.498Z,98839.13
2023-01-19T20:01:36.451Z,98833.81
2023-01-19T20:04:11.571Z,98835.44
2023-01-19T20:06:46.443Z,98843.28
2023-01-19T20:09:15.636Z,98849.22
2023-01-19T20:11:45.433Z,98850.19
2023-01-19T20:14:17.020Z,98861.38
2023-01-19T20:16:46.845Z,98857.13
2023-01-19T20:19:14.979Z,98857.03
2023-01-19T20:21:43.418Z,98865.69
2023-01-19T20:24:16.971Z,98866.63
2023-01-19T20:26:46.503Z,98866.53
2023-01-19T20:29:14.441Z,98876.94
2023-01-19T20:31:47.821Z,98877.00
2023-01-19T20:34:17.695Z,98878.78
2023-01-19T20:36:50.023Z,98870.25
2023-01-19T20:39:21.701Z,98876.34
2023-01-19T20:41:51.454Z,98866.00
2023-01-19T20:44:24.336Z,98875.56
2023-01-19T20:46:52.216Z,98872.03
2023-01-19T20:49:28.162Z,98885.75
2023-01-19T20:51:58.848Z,98883.91
2023-01-19T20:54:28.276Z,98876.19
2023-01-19T20:56:56.247Z,98873.59
2023-01-19T20:59:24.298Z,98884.88
2023-01-19T21:01:52.913Z,98887.38
2023-01-19T21:04:23.319Z,98893.28
2023-01-19T21:06:51.588Z,98890.78
2023-01-19T21:09:19.105Z,98892.50
2023-01-19T21:11:46.114Z,98892.41
2023-01-19T21:14:13.265Z,98877.97
2023-01-19T21:16:42.953Z,98884.09
2023-01-19T21:19:10.705Z,98891.75
2023-01-19T21:21:38.413Z,98900.44
2023-01-19T21:24:05.894Z,98900.50
2023-01-19T21:26:33.796Z,98904.72
2023-01-19T21:29:02.174Z,98913.31
2023-01-19T21:31:29.852Z,98915.81
2023-01-19T21:33:58.458Z,98915.19
2023-01-19T21:36:26.290Z,98922.94
2023-01-19T21:39:00.924Z,98918.69
2023-01-19T21:41:28.988Z,98920.28
2023-01-19T21:43:56.093Z,98924.66
2023-01-19T21:46:32.487Z,98924.59
2023-01-19T21:49:01.604Z,98930.72
2023-01-19T21:51:29.270Z,98926.47
2023-01-19T21:53:59.870Z,98931.66
2023-01-19T21:56:27.464Z,98928.19
2023-01-19T21:58:56.160Z,98929.03
2023-01-19T22:01:25.708Z,98925.59
2023-01-19T22:03:57.701Z,98930.78
2023-01-19T22:06:25.484Z,98929.94
2023-01-19T22:08:55.188Z,98929.09
2023-01-19T22:11:22.759Z,98935.97
2023-01-19T22:13:51.928Z,98939.44
2023-01-19T22:16:20.292Z,98936.00
2023-01-19T22:18:51.235Z,98941.94
2023-01-19T22:21:19.919Z,98947.94
2023-01-19T22:23:51.189Z,98946.25
2023-01-19T22:26:18.883Z,98950.63
2023-01-19T22:28:46.969Z,98953.22
2023-01-19T22:31:20.163Z,98941.13
2023-01-19T22:33:49.389Z,98948.03
2023-01-19T22:36:20.040Z,98947.19
2023-01-19T22:38:55.078Z,98943.66
2023-01-19T22:41:26.366Z,98950.63
2023-01-19T22:43:55.303Z,98948.88
2023-01-19T22:46:23.291Z,98944.47
2023-01-19T22:48:51.247Z,98946.31
2023-01-19T22:51:18.732Z,98953.22
2023-01-19T22:53:45.730Z,98953.28
2023-01-19T22:56:15.454Z,98954.03
2023-01-19T22:58:48.516Z,98964.34
2023-01-19T23:01:20.922Z,98960.00
2023-01-19T23:03:48.582Z,98959.16
2023-01-19T23:06:27.598Z,98966.19
2023-01-19T23:08:55.781Z,98965.34
2023-01-19T23:11:28.549Z,98968.81
2023-01-19T23:13:55.945Z,98971.34
2023-01-19T23:16:29.115Z,98972.19
2023-01-19T23:18:57.280Z,98966.97
2023-01-19T23:21:26.925Z,98970.44
2023-01-19T23:23:57.190Z,98970.38
2023-01-19T23:26:25.102Z,98967.78
2023-01-19T23:28:57.053Z,98969.53
2023-01-19T23:31:28.295Z,98963.41
2023-01-19T23:33:56.770Z,98979.00
2023-01-19T23:36:25.064Z,98979.00
2023-01-19T23:38:54.433Z,98981.63
2023-01-19T23:41:30.046Z,98985.06
2023-01-19T23:43:57.554Z,98987.75
2023-01-19T23:46:24.749Z,98993.78
2023-01-19T23:48:51.748Z,98995.53
2023-01-19T23:51:21.257Z,98998.22
2023-01-19T23:53:48.198Z,99004.22
2023-01-19T23:56:17.680Z,99006.84
2023-01-19T23:58:47.631Z,99003.41
